world map with PSR marked

PSR - Airport

This information may not be accurate or current and is not valid for navigation or flight planning. No warranty of fitness for any purpose is made or implied.

flag of Abruzzoflag of Italy

Donate via PayPal

Additional information is available on the NEW Great Circle Mapper

Location
City:  Pescara, Abruzzo, Italy
Name:Abruzzo International Airport
ICAO / IATA:LIBP / PSR

Details
Type:Airport (Aerodrome, Airfield)
Use:Public/Civil
Latitude:42°25'54"N (42.431656)
Longitude:14°10'52"E (14.181067)
Datum:WGS 1984
Elevation:48 ft (15 m)
Runways:1
Longest:7934 × 148 ft (2418 × 45 m)

Time
Timezone:UTC+1 (DST+4)
Local Time:

Weather
METAR:LIBP  041414Z 33009KT 9000 RA FEW015 BKN025 10/07 Q1020
TAF:LIBP  041100Z 0412/0512 34012KT 9999 BKN030 TEMPO 0412/0420 4000 SHRA

Related Locations
Nearby:
Farthest:CHT: 11895 mi / 19143 km
Waitangi [Tuuta], CIT, NZ

Find:

   beyond  
but within

Other Information
Maps:
Sources:

  


 


Great Circle Mapper   Great Circle Mapper
Great Circle Mapper FAQ   Great Circle Mapper FAQ
  Karl's Home Page
KLSē   KLSē Home
   GC on Facebook
Airlines of the World   Airlines of the World
Donate via PayPal


Copyright © 2004-2019, Karl L. Swartz. All rights reserved.
All trademarks mentioned herein belong to their respective owners.

Please see credits for attribution and copyright information.

Karl Swartz <karl@kls2.com>
  Powered by FreeBSD
Valid HTML 4.01!
Labeled with ICRA
hCard Microformat
Geo Microformat